sensor_id;sensor_type;location;lat;lon;timestamp;temperature;humidity
22966;DHT22;11649;48.090;9.754;2023-12-20T00:01:44;4.70;99.90
22966;DHT22;11649;48.090;9.754;2023-12-20T00:04:11;4.70;99.90
22966;DHT22;11649;48.090;9.754;2023-12-20T00:06:38;4.70;99.90
22966;DHT22;11649;48.090;9.754;2023-12-20T00:09:04;4.80;99.90
22966;DHT22;11649;48.090;9.754;2023-12-20T00:11:31;4.80;99.90
22966;DHT22;11649;48.090;9.754;2023-12-20T00:13:58;4.80;99.90
22966;DHT22;11649;48.090;9.754;2023-12-20T00:16:25;6.00;99.90
22966;DHT22;11649;48.090;9.754;2023-12-20T00:18:52;4.40;99.90
22966;DHT22;11649;48.090;9.754;2023-12-20T00:21:19;4.70;99.90
22966;DHT22;11649;48.090;9.754;2023-12-20T00:23:46;6.00;99.90
22966;DHT22;11649;48.090;9.754;2023-12-20T00:26:12;4.50;99.90
22966;DHT22;11649;48.090;9.754;2023-12-20T00:28:39;4.80;99.90
22966;DHT22;11649;48.090;9.754;2023-12-20T00:31:06;4.60;99.90
22966;DHT22;11649;48.090;9.754;2023-12-20T00:33:33;4.20;99.90
22966;DHT22;11649;48.090;9.754;2023-12-20T00:36:00;4.60;99.90
22966;DHT22;11649;48.090;9.754;2023-12-20T00:38:27;4.60;99.90
22966;DHT22;11649;48.090;9.754;2023-12-20T00:40:54;4.60;99.90
22966;DHT22;11649;48.090;9.754;2023-12-20T00:43:21;4.50;99.90
22966;DHT22;11649;48.090;9.754;2023-12-20T00:45:48;4.50;99.90
22966;DHT22;11649;48.090;9.754;2023-12-20T00:48:15;4.50;99.90
22966;DHT22;11649;48.090;9.754;2023-12-20T00:50:41;4.50;99.90
22966;DHT22;11649;48.090;9.754;2023-12-20T00:53:08;4.50;99.90
22966;DHT22;11649;48.090;9.754;2023-12-20T00:55:35;4.50;99.90
22966;DHT22;11649;48.090;9.754;2023-12-20T00:58:02;4.50;99.90
22966;DHT22;11649;48.090;9.754;2023-12-20T01:00:29;4.50;99.90
22966;DHT22;11649;48.090;9.754;2023-12-20T01:02:56;4.50;99.90
22966;DHT22;11649;48.090;9.754;2023-12-20T01:05:22;4.20;99.90
22966;DHT22;11649;48.090;9.754;2023-12-20T01:07:49;4.30;99.90
22966;DHT22;11649;48.090;9.754;2023-12-20T01:10:16;4.30;99.90
22966;DHT22;11649;48.090;9.754;2023-12-20T01:12:44;4.30;99.90
22966;DHT22;11649;48.090;9.754;2023-12-20T01:15:11;4.30;99.90
22966;DHT22;11649;48.090;9.754;2023-12-20T01:17:38;4.40;99.90
22966;DHT22;11649;48.090;9.754;2023-12-20T01:20:16;4.30;99.90
22966;DHT22;11649;48.090;9.754;2023-12-20T01:22:43;4.30;99.90
22966;DHT22;11649;48.090;9.754;2023-12-20T01:25:12;4.30;99.90
22966;DHT22;11649;48.090;9.754;2023-12-20T01:27:39;4.30;99.90
22966;DHT22;11649;48.090;9.754;2023-12-20T01:30:07;4.30;99.90
22966;DHT22;11649;48.090;9.754;2023-12-20T01:32:33;4.30;99.90
22966;DHT22;11649;48.090;9.754;2023-12-20T01:35:00;4.30;99.90
22966;DHT22;11649;48.090;9.754;2023-12-20T01:37:29;4.30;99.90
22966;DHT22;11649;48.090;9.754;2023-12-20T01:39:56;4.50;99.90
22966;DHT22;11649;48.090;9.754;2023-12-20T01:42:23;4.40;99.90
22966;DHT22;11649;48.090;9.754;2023-12-20T01:44:50;4.40;99.90
22966;DHT22;11649;48.090;9.754;2023-12-20T01:47:17;4.40;99.90
22966;DHT22;11649;48.090;9.754;2023-12-20T01:49:43;4.20;99.90
22966;DHT22;11649;48.090;9.754;2023-12-20T01:52:11;4.20;99.90
22966;DHT22;11649;48.090;9.754;2023-12-20T01:54:40;4.30;99.90
22966;DHT22;11649;48.090;9.754;2023-12-20T01:57:08;4.20;99.90
22966;DHT22;11649;48.090;9.754;2023-12-20T01:59:36;4.30;99.90
22966;DHT22;11649;48.090;9.754;2023-12-20T02:02:03;4.20;99.90
22966;DHT22;11649;48.090;9.754;2023-12-20T02:04:30;4.30;99.90
22966;DHT22;11649;48.090;9.754;2023-12-20T02:06:59;4.40;99.90
22966;DHT22;11649;48.090;9.754;2023-12-20T02:09:27;4.40;99.90
22966;DHT22;11649;48.090;9.754;2023-12-20T02:11:54;4.40;99.90
22966;DHT22;11649;48.090;9.754;2023-12-20T02:14:21;4.40;99.90
22966;DHT22;11649;48.090;9.754;2023-12-20T02:16:48;4.50;99.90
22966;DHT22;11649;48.090;9.754;2023-12-20T02:19:15;4.40;99.90
22966;DHT22;11649;48.090;9.754;2023-12-20T02:21:44;4.40;99.90
22966;DHT22;11649;48.090;9.754;2023-12-20T02:24:11;4.50;99.90
22966;DHT22;11649;48.090;9.754;2023-12-20T02:26:37;4.50;99.90
22966;DHT22;11649;48.090;9.754;2023-12-20T02:29:04;4.50;99.90
22966;DHT22;11649;48.090;9.754;2023-12-20T02:31:31;4.40;99.90
22966;DHT22;11649;48.090;9.754;2023-12-20T02:33:59;4.40;99.90
22966;DHT22;11649;48.090;9.754;2023-12-20T02:36:26;4.50;99.90
22966;DHT22;11649;48.090;9.754;2023-12-20T02:38:53;4.60;99.90
22966;DHT22;11649;48.090;9.754;2023-12-20T02:41:19;4.70;99.90
22966;DHT22;11649;48.090;9.754;2023-12-20T02:43:46;4.60;99.90
22966;DHT22;11649;48.090;9.754;2023-12-20T02:46:14;4.70;99.90
22966;DHT22;11649;48.090;9.754;2023-12-20T02:48:42;4.70;99.90
22966;DHT22;11649;48.090;9.754;2023-12-20T02:51:09;4.70;99.90
22966;DHT22;11649;48.090;9.754;2023-12-20T02:53:35;4.70;99.90
22966;DHT22;11649;48.090;9.754;2023-12-20T02:56:02;4.70;99.90
22966;DHT22;11649;48.090;9.754;2023-12-20T02:58:29;4.80;99.90
22966;DHT22;11649;48.090;9.754;2023-12-20T03:00:56;4.80;99.90
22966;DHT22;11649;48.090;9.754;2023-12-20T03:03:23;4.60;99.90
22966;DHT22;11649;48.090;9.754;2023-12-20T03:05:49;4.70;99.90
22966;DHT22;11649;48.090;9.754;2023-12-20T03:08:16;4.70;99.90
22966;DHT22;11649;48.090;9.754;2023-12-20T03:10:43;4.80;99.90
22966;DHT22;11649;48.090;9.754;2023-12-20T03:13:10;4.80;99.90
22966;DHT22;11649;48.090;9.754;2023-12-20T03:15:37;4.80;99.90
22966;DHT22;11649;48.090;9.754;2023-12-20T03:18:04;4.80;99.90
22966;DHT22;11649;48.090;9.754;2023-12-20T03:20:31;4.70;99.90
22966;DHT22;11649;48.090;9.754;2023-12-20T03:23:00;4.70;99.90
22966;DHT22;11649;48.090;9.754;2023-12-20T03:25:27;4.70;99.90
22966;DHT22;11649;48.090;9.754;2023-12-20T03:27:54;4.80;99.90
22966;DHT22;11649;48.090;9.754;2023-12-20T03:30:21;4.70;99.90
22966;DHT22;11649;48.090;9.754;2023-12-20T03:32:48;4.70;99.90
22966;DHT22;11649;48.090;9.754;2023-12-20T03:35:15;4.70;99.90
22966;DHT22;11649;48.090;9.754;2023-12-20T03:37:41;4.70;99.90
22966;DHT22;11649;48.090;9.754;2023-12-20T03:40:09;4.80;99.90
22966;DHT22;11649;48.090;9.754;2023-12-20T03:42:36;4.80;99.90
22966;DHT22;11649;48.090;9.754;2023-12-20T03:45:03;4.80;99.90
22966;DHT22;11649;48.090;9.754;2023-12-20T03:47:30;4.80;99.90
22966;DHT22;11649;48.090;9.754;2023-12-20T03:49:57;5.50;99.90
22966;DHT22;11649;48.090;9.754;2023-12-20T03:52:23;4.60;99.90
22966;DHT22;11649;48.090;9.754;2023-12-20T03:54:50;5.70;99.90
22966;DHT22;11649;48.090;9.754;2023-12-20T03:57:17;6.50;99.90
22966;DHT22;11649;48.090;9.754;2023-12-20T03:59:44;5.60;99.90
22966;DHT22;11649;48.090;9.754;2023-12-20T04:02:11;6.00;99.90
22966;DHT22;11649;48.090;9.754;2023-12-20T04:04:38;5.40;99.90
22966;DHT22;11649;48.090;9.754;2023-12-20T04:07:04;5.30;99.90
22966;DHT22;11649;48.090;9.754;2023-12-20T04:09:31;5.80;99.90
22966;DHT22;11649;48.090;9.754;2023-12-20T04:11:58;5.80;99.90
22966;DHT22;11649;48.090;9.754;2023-12-20T04:14:25;5.70;99.90
22966;DHT22;11649;48.090;9.754;2023-12-20T04:16:53;4.20;99.90
22966;DHT22;11649;48.090;9.754;2023-12-20T04:19:20;6.00;99.90
22966;DHT22;11649;48.090;9.754;2023-12-20T04:21:51;5.50;99.90
22966;DHT22;11649;48.090;9.754;2023-12-20T04:24:18;6.10;99.90
22966;DHT22;11649;48.090;9.754;2023-12-20T04:26:44;5.70;99.90
22966;DHT22;11649;48.090;9.754;2023-12-20T04:29:11;5.80;99.90
22966;DHT22;11649;48.090;9.754;2023-12-20T04:31:38;6.20;99.90
22966;DHT22;11649;48.090;9.754;2023-12-20T04:34:05;4.90;99.90
22966;DHT22;11649;48.090;9.754;2023-12-20T04:36:32;5.60;99.90
22966;DHT22;11649;48.090;9.754;2023-12-20T04:39:02;5.60;99.90
22966;DHT22;11649;48.090;9.754;2023-12-20T04:41:32;4.40;99.90
22966;DHT22;11649;48.090;9.754;2023-12-20T04:43:58;4.50;99.90
22966;DHT22;11649;48.090;9.754;2023-12-20T04:46:26;5.40;99.90
22966;DHT22;11649;48.090;9.754;2023-12-20T04:48:54;6.00;99.90
22966;DHT22;11649;48.090;9.754;2023-12-20T04:51:23;5.20;99.90
22966;DHT22;11649;48.090;9.754;2023-12-20T04:53:53;5.90;99.90
22966;DHT22;11649;48.090;9.754;2023-12-20T04:56:19;5.70;99.90
22966;DHT22;11649;48.090;9.754;2023-12-20T04:58:46;6.00;99.90
22966;DHT22;11649;48.090;9.754;2023-12-20T05:01:13;6.20;99.90
22966;DHT22;11649;48.090;9.754;2023-12-20T05:03:40;4.70;99.90
22966;DHT22;11649;48.090;9.754;2023-12-20T05:06:10;5.60;99.90
22966;DHT22;11649;48.090;9.754;2023-12-20T05:08:37;5.80;99.90
22966;DHT22;11649;48.090;9.754;2023-12-20T05:11:05;6.40;99.90
22966;DHT22;11649;48.090;9.754;2023-12-20T05:13:32;4.70;99.90
22966;DHT22;11649;48.090;9.754;2023-12-20T05:16:13;5.50;99.90
22966;DHT22;11649;48.090;9.754;2023-12-20T05:18:44;5.30;99.90
22966;DHT22;11649;48.090;9.754;2023-12-20T05:21:11;6.00;99.90
22966;DHT22;11649;48.090;9.754;2023-12-20T05:23:38;4.50;99.90
22966;DHT22;11649;48.090;9.754;2023-12-20T05:26:05;4.80;99.90
22966;DHT22;11649;48.090;9.754;2023-12-20T05:28:33;5.10;99.90
22966;DHT22;11649;48.090;9.754;2023-12-20T05:30:59;5.70;99.90
22966;DHT22;11649;48.090;9.754;2023-12-20T05:33:27;5.00;99.90
22966;DHT22;11649;48.090;9.754;2023-12-20T05:35:54;5.20;99.90
22966;DHT22;11649;48.090;9.754;2023-12-20T05:38:24;5.60;99.90
22966;DHT22;11649;48.090;9.754;2023-12-20T05:40:51;5.90;99.90
22966;DHT22;11649;48.090;9.754;2023-12-20T05:43:18;4.40;99.90
22966;DHT22;11649;48.090;9.754;2023-12-20T05:45:44;4.50;99.90
22966;DHT22;11649;48.090;9.754;2023-12-20T05:48:12;5.40;99.90
22966;DHT22;11649;48.090;9.754;2023-12-20T05:50:39;4.40;99.90
22966;DHT22;11649;48.090;9.754;2023-12-20T05:53:06;4.50;99.90
22966;DHT22;11649;48.090;9.754;2023-12-20T05:55:32;6.10;99.90
22966;DHT22;11649;48.090;9.754;2023-12-20T05:57:59;6.00;99.90
22966;DHT22;11649;48.090;9.754;2023-12-20T06:00:27;4.40;99.90
22966;DHT22;11649;48.090;9.754;2023-12-20T06:02:54;5.80;99.90
22966;DHT22;11649;48.090;9.754;2023-12-20T06:05:21;5.00;99.90
22966;DHT22;11649;48.090;9.754;2023-12-20T06:07:48;4.20;99.90
22966;DHT22;11649;48.090;9.754;2023-12-20T06:10:17;4.30;99.90
22966;DHT22;11649;48.090;9.754;2023-12-20T06:12:44;4.30;99.90
22966;DHT22;11649;48.090;9.754;2023-12-20T06:15:14;4.10;99.90
22966;DHT22;11649;48.090;9.754;2023-12-20T06:17:41;4.10;99.90
22966;DHT22;11649;48.090;9.754;2023-12-20T06:20:08;5.30;99.90
22966;DHT22;11649;48.090;9.754;2023-12-20T06:22:38;4.20;99.90
22966;DHT22;11649;48.090;9.754;2023-12-20T06:25:06;4.40;99.90
22966;DHT22;11649;48.090;9.754;2023-12-20T06:27:33;4.30;99.90
22966;DHT22;11649;48.090;9.754;2023-12-20T06:30:00;5.30;99.90
22966;DHT22;11649;48.090;9.754;2023-12-20T06:32:27;5.50;99.90
22966;DHT22;11649;48.090;9.754;2023-12-20T06:34:55;4.20;99.90
22966;DHT22;11649;48.090;9.754;2023-12-20T06:37:22;4.30;99.90
22966;DHT22;11649;48.090;9.754;2023-12-20T06:39:49;5.60;99.90
22966;DHT22;11649;48.090;9.754;2023-12-20T06:42:16;5.90;99.90
22966;DHT22;11649;48.090;9.754;2023-12-20T06:44:43;5.00;99.90
22966;DHT22;11649;48.090;9.754;2023-12-20T06:47:09;4.30;99.90
22966;DHT22;11649;48.090;9.754;2023-12-20T06:49:36;5.00;99.90
22966;DHT22;11649;48.090;9.754;2023-12-20T06:52:03;4.90;99.90
22966;DHT22;11649;48.090;9.754;2023-12-20T06:54:30;4.50;99.90
22966;DHT22;11649;48.090;9.754;2023-12-20T06:56:57;6.30;99.90
22966;DHT22;11649;48.090;9.754;2023-12-20T06:59:24;6.20;99.90
22966;DHT22;11649;48.090;9.754;2023-12-20T07:01:50;6.30;99.90
22966;DHT22;11649;48.090;9.754;2023-12-20T07:04:17;4.50;99.90
22966;DHT22;11649;48.090;9.754;2023-12-20T07:06:48;5.20;99.90
22966;DHT22;11649;48.090;9.754;2023-12-20T07:09:18;5.70;99.90
22966;DHT22;11649;48.090;9.754;2023-12-20T07:11:45;4.50;99.90
22966;DHT22;11649;48.090;9.754;2023-12-20T07:14:12;5.50;99.90
22966;DHT22;11649;48.090;9.754;2023-12-20T07:16:39;4.60;99.90
22966;DHT22;11649;48.090;9.754;2023-12-20T07:19:06;4.40;99.90
22966;DHT22;11649;48.090;9.754;2023-12-20T07:21:34;4.50;99.90
22966;DHT22;11649;48.090;9.754;2023-12-20T07:24:00;4.60;99.90
22966;DHT22;11649;48.090;9.754;2023-12-20T07:26:27;4.50;99.90
22966;DHT22;11649;48.090;9.754;2023-12-20T07:28:54;6.20;99.90
22966;DHT22;11649;48.090;9.754;2023-12-20T07:31:21;4.50;99.90
22966;DHT22;11649;48.090;9.754;2023-12-20T07:33:48;4.50;99.90
22966;DHT22;11649;48.090;9.754;2023-12-20T07:36:15;6.00;99.90
22966;DHT22;11649;48.090;9.754;2023-12-20T07:38:42;4.80;99.90
22966;DHT22;11649;48.090;9.754;2023-12-20T07:41:10;6.30;99.90
22966;DHT22;11649;48.090;9.754;2023-12-20T07:43:37;4.80;99.90
22966;DHT22;11649;48.090;9.754;2023-12-20T07:46:08;4.80;99.90
22966;DHT22;11649;48.090;9.754;2023-12-20T07:48:35;4.70;99.90
22966;DHT22;11649;48.090;9.754;2023-12-20T07:51:03;5.40;99.90
22966;DHT22;11649;48.090;9.754;2023-12-20T07:53:30;4.90;99.90
22966;DHT22;11649;48.090;9.754;2023-12-20T07:55:57;5.80;99.90
22966;DHT22;11649;48.090;9.754;2023-12-20T07:58:24;5.10;99.90
22966;DHT22;11649;48.090;9.754;2023-12-20T08:01:06;4.60;99.90
22966;DHT22;11649;48.090;9.754;2023-12-20T08:03:33;4.70;99.90
22966;DHT22;11649;48.090;9.754;2023-12-20T08:06:00;4.90;99.90
22966;DHT22;11649;48.090;9.754;2023-12-20T08:08:27;4.90;99.90
22966;DHT22;11649;48.090;9.754;2023-12-20T08:10:54;4.80;99.90
22966;DHT22;11649;48.090;9.754;2023-12-20T08:13:21;6.10;99.90
22966;DHT22;11649;48.090;9.754;2023-12-20T08:15:53;5.40;99.90
22966;DHT22;11649;48.090;9.754;2023-12-20T08:18:20;6.00;99.90
22966;DHT22;11649;48.090;9.754;2023-12-20T08:20:47;6.50;99.90
22966;DHT22;11649;48.090;9.754;2023-12-20T08:23:15;5.50;99.90
22966;DHT22;11649;48.090;9.754;2023-12-20T08:25:42;5.00;99.90
22966;DHT22;11649;48.090;9.754;2023-12-20T08:28:09;5.20;99.90
22966;DHT22;11649;48.090;9.754;2023-12-20T08:30:36;5.10;99.90
22966;DHT22;11649;48.090;9.754;2023-12-20T08:33:03;5.70;99.90
22966;DHT22;11649;48.090;9.754;2023-12-20T08:35:30;5.20;99.90
22966;DHT22;11649;48.090;9.754;2023-12-20T08:37:57;4.90;99.90
22966;DHT22;11649;48.090;9.754;2023-12-20T08:40:23;5.10;99.90
22966;DHT22;11649;48.090;9.754;2023-12-20T08:42:50;5.10;99.90
22966;DHT22;11649;48.090;9.754;2023-12-20T08:45:17;5.10;99.90
22966;DHT22;11649;48.090;9.754;2023-12-20T08:47:44;5.30;99.90
22966;DHT22;11649;48.090;9.754;2023-12-20T08:50:20;5.30;99.90
22966;DHT22;11649;48.090;9.754;2023-12-20T08:52:47;5.40;99.90
22966;DHT22;11649;48.090;9.754;2023-12-20T08:55:14;5.40;99.90
22966;DHT22;11649;48.090;9.754;2023-12-20T08:57:44;5.40;99.90
22966;DHT22;11649;48.090;9.754;2023-12-20T09:00:11;5.40;99.90
22966;DHT22;11649;48.090;9.754;2023-12-20T09:02:38;5.50;99.90
22966;DHT22;11649;48.090;9.754;2023-12-20T09:05:05;5.60;99.90
22966;DHT22;11649;48.090;9.754;2023-12-20T09:07:32;5.40;99.90
22966;DHT22;11649;48.090;9.754;2023-12-20T09:09:59;5.50;99.90
22966;DHT22;11649;48.090;9.754;2023-12-20T09:12:26;5.40;99.90
22966;DHT22;11649;48.090;9.754;2023-12-20T09:14:54;5.40;99.90
22966;DHT22;11649;48.090;9.754;2023-12-20T09:17:20;5.60;99.90
22966;DHT22;11649;48.090;9.754;2023-12-20T09:19:49;5.70;99.90
22966;DHT22;11649;48.090;9.754;2023-12-20T09:22:16;5.70;99.90
22966;DHT22;11649;48.090;9.754;2023-12-20T09:24:44;5.80;99.90
22966;DHT22;11649;48.090;9.754;2023-12-20T09:27:11;5.90;99.90
22966;DHT22;11649;48.090;9.754;2023-12-20T09:29:38;5.90;99.90
22966;DHT22;11649;48.090;9.754;2023-12-20T09:32:05;6.00;99.90
22966;DHT22;11649;48.090;9.754;2023-12-20T09:34:32;6.50;99.90
22966;DHT22;11649;48.090;9.754;2023-12-20T09:36:59;6.90;99.90
22966;DHT22;11649;48.090;9.754;2023-12-20T09:39:25;7.20;99.90
22966;DHT22;11649;48.090;9.754;2023-12-20T09:42:03;7.30;99.90
22966;DHT22;11649;48.090;9.754;2023-12-20T09:44:31;7.30;99.90
22966;DHT22;11649;48.090;9.754;2023-12-20T09:46:58;7.20;99.90
22966;DHT22;11649;48.090;9.754;2023-12-20T09:49:28;7.10;99.90
22966;DHT22;11649;48.090;9.754;2023-12-20T09:51:55;7.00;99.90
22966;DHT22;11649;48.090;9.754;2023-12-20T09:54:23;6.90;99.90
22966;DHT22;11649;48.090;9.754;2023-12-20T09:56:50;6.80;99.90
22966;DHT22;11649;48.090;9.754;2023-12-20T09:59:17;6.60;99.90
22966;DHT22;11649;48.090;9.754;2023-12-20T10:01:55;6.40;99.90
22966;DHT22;11649;48.090;9.754;2023-12-20T10:04:24;6.30;99.90
22966;DHT22;11649;48.090;9.754;2023-12-20T10:06:56;6.30;99.90
22966;DHT22;11649;48.090;9.754;2023-12-20T10:09:24;6.20;99.90
22966;DHT22;11649;48.090;9.754;2023-12-20T10:11:54;6.10;99.90
22966;DHT22;11649;48.090;9.754;2023-12-20T10:14:21;6.10;99.90
22966;DHT22;11649;48.090;9.754;2023-12-20T10:16:50;6.30;99.90
22966;DHT22;11649;48.090;9.754;2023-12-20T10:19:17;6.50;99.90
22966;DHT22;11649;48.090;9.754;2023-12-20T10:21:45;6.50;99.90
22966;DHT22;11649;48.090;9.754;2023-12-20T10:24:17;6.60;99.90
22966;DHT22;11649;48.090;9.754;2023-12-20T10:26:44;6.60;99.90
22966;DHT22;11649;48.090;9.754;2023-12-20T10:29:10;6.70;99.90
22966;DHT22;11649;48.090;9.754;2023-12-20T10:31:37;6.90;99.90
22966;DHT22;11649;48.090;9.754;2023-12-20T10:34:09;6.90;99.90
22966;DHT22;11649;48.090;9.754;2023-12-20T10:36:36;7.10;99.90
22966;DHT22;11649;48.090;9.754;2023-12-20T10:39:04;7.50;99.90
22966;DHT22;11649;48.090;9.754;2023-12-20T10:41:33;7.60;99.90
22966;DHT22;11649;48.090;9.754;2023-12-20T10:44:03;7.60;99.90
22966;DHT22;11649;48.090;9.754;2023-12-20T10:46:31;7.50;99.90
22966;DHT22;11649;48.090;9.754;2023-12-20T10:49:06;7.30;99.90
22966;DHT22;11649;48.090;9.754;2023-12-20T10:51:34;7.20;99.90
22966;DHT22;11649;48.090;9.754;2023-12-20T10:54:01;7.00;99.90
22966;DHT22;11649;48.090;9.754;2023-12-20T10:56:32;7.00;99.90
22966;DHT22;11649;48.090;9.754;2023-12-20T10:59:01;7.00;99.90
22966;DHT22;11649;48.090;9.754;2023-12-20T11:01:30;7.00;99.90
22966;DHT22;11649;48.090;9.754;2023-12-20T11:03:57;6.80;99.90
22966;DHT22;11649;48.090;9.754;2023-12-20T11:09:24;6.60;99.90
22966;DHT22;11649;48.090;9.754;2023-12-20T11:14:49;6.30;99.90
22966;DHT22;11649;48.090;9.754;2023-12-20T11:17:16;6.40;99.90
22966;DHT22;11649;48.090;9.754;2023-12-20T11:22:31;6.40;99.90
22966;DHT22;11649;48.090;9.754;2023-12-20T11:25:04;6.50;99.90
22966;DHT22;11649;48.090;9.754;2023-12-20T11:27:31;6.50;99.90
22966;DHT22;11649;48.090;9.754;2023-12-20T11:29:59;6.50;99.90
22966;DHT22;11649;48.090;9.754;2023-12-20T11:32:27;6.60;99.90
22966;DHT22;11649;48.090;9.754;2023-12-20T11:37:31;6.40;99.90
22966;DHT22;11649;48.090;9.754;2023-12-20T11:40:06;6.40;99.90
22966;DHT22;11649;48.090;9.754;2023-12-20T11:42:40;6.40;99.90
22966;DHT22;11649;48.090;9.754;2023-12-20T11:45:25;6.40;99.90
22966;DHT22;11649;48.090;9.754;2023-12-20T11:47:56;6.40;99.90
22966;DHT22;11649;48.090;9.754;2023-12-20T11:50:24;6.50;99.90
22966;DHT22;11649;48.090;9.754;2023-12-20T11:52:52;6.60;99.90
22966;DHT22;11649;48.090;9.754;2023-12-20T11:55:20;6.70;99.90
22966;DHT22;11649;48.090;9.754;2023-12-20T11:57:47;6.50;99.90
22966;DHT22;11649;48.090;9.754;2023-12-20T12:00:15;7.30;99.90
22966;DHT22;11649;48.090;9.754;2023-12-20T12:02:42;7.00;99.90
22966;DHT22;11649;48.090;9.754;2023-12-20T12:05:14;7.20;99.90
22966;DHT22;11649;48.090;9.754;2023-12-20T12:07:41;7.30;99.90
22966;DHT22;11649;48.090;9.754;2023-12-20T12:10:08;7.30;99.90
22966;DHT22;11649;48.090;9.754;2023-12-20T12:12:35;7.30;99.90
22966;DHT22;11649;48.090;9.754;2023-12-20T12:15:02;7.20;99.90
22966;DHT22;11649;48.090;9.754;2023-12-20T12:17:29;7.10;99.90
22966;DHT22;11649;48.090;9.754;2023-12-20T12:20:05;7.10;99.90
22966;DHT22;11649;48.090;9.754;2023-12-20T12:22:33;7.00;99.90
22966;DHT22;11649;48.090;9.754;2023-12-20T12:25:09;6.90;99.90
22966;DHT22;11649;48.090;9.754;2023-12-20T12:27:40;6.80;99.90
22966;DHT22;11649;48.090;9.754;2023-12-20T12:30:09;6.90;99.90
22966;DHT22;11649;48.090;9.754;2023-12-20T12:32:36;6.90;99.90
22966;DHT22;11649;48.090;9.754;2023-12-20T12:35:04;6.90;99.90
22966;DHT22;11649;48.090;9.754;2023-12-20T12:37:38;6.90;99.90
22966;DHT22;11649;48.090;9.754;2023-12-20T12:40:13;6.80;99.90
22966;DHT22;11649;48.090;9.754;2023-12-20T12:42:41;6.70;99.90
22966;DHT22;11649;48.090;9.754;2023-12-20T12:45:09;6.60;99.90
22966;DHT22;11649;48.090;9.754;2023-12-20T12:47:36;6.60;99.90
22966;DHT22;11649;48.090;9.754;2023-12-20T12:50:03;6.60;99.90
22966;DHT22;11649;48.090;9.754;2023-12-20T12:52:31;6.80;99.90
22966;DHT22;11649;48.090;9.754;2023-12-20T12:54:58;6.70;99.90
22966;DHT22;11649;48.090;9.754;2023-12-20T12:57:24;6.80;99.90
22966;DHT22;11649;48.090;9.754;2023-12-20T12:59:51;6.90;99.90
22966;DHT22;11649;48.090;9.754;2023-12-20T13:02:18;7.20;99.90
22966;DHT22;11649;48.090;9.754;2023-12-20T13:04:45;7.40;99.90
22966;DHT22;11649;48.090;9.754;2023-12-20T13:07:13;7.60;99.90
22966;DHT22;11649;48.090;9.754;2023-12-20T13:09:39;7.70;99.90
22966;DHT22;11649;48.090;9.754;2023-12-20T13:12:07;7.70;99.90
22966;DHT22;11649;48.090;9.754;2023-12-20T13:14:34;7.70;99.90
22966;DHT22;11649;48.090;9.754;2023-12-20T13:17:02;7.70;99.90
22966;DHT22;11649;48.090;9.754;2023-12-20T13:19:30;7.80;99.90
22966;DHT22;11649;48.090;9.754;2023-12-20T13:21:57;8.00;99.90
22966;DHT22;11649;48.090;9.754;2023-12-20T13:24:27;8.10;99.90
22966;DHT22;11649;48.090;9.754;2023-12-20T13:26:54;8.10;99.10
22966;DHT22;11649;48.090;9.754;2023-12-20T13:29:20;8.10;99.30
22966;DHT22;11649;48.090;9.754;2023-12-20T13:31:48;8.20;97.30
22966;DHT22;11649;48.090;9.754;2023-12-20T13:34:16;8.40;96.70
22966;DHT22;11649;48.090;9.754;2023-12-20T13:36:57;8.50;95.30
22966;DHT22;11649;48.090;9.754;2023-12-20T13:39:25;8.80;93.00
22966;DHT22;11649;48.090;9.754;2023-12-20T13:41:52;8.80;92.80
22966;DHT22;11649;48.090;9.754;2023-12-20T13:44:19;9.50;90.50
22966;DHT22;11649;48.090;9.754;2023-12-20T13:46:45;10.90;90.80
22966;DHT22;11649;48.090;9.754;2023-12-20T13:49:13;9.20;89.90
22966;DHT22;11649;48.090;9.754;2023-12-20T13:51:40;10.20;83.90
22966;DHT22;11649;48.090;9.754;2023-12-20T13:54:07;10.10;79.30
22966;DHT22;11649;48.090;9.754;2023-12-20T13:56:34;10.20;76.90
22966;DHT22;11649;48.090;9.754;2023-12-20T13:59:13;10.60;74.80
22966;DHT22;11649;48.090;9.754;2023-12-20T14:01:41;11.10;72.90
22966;DHT22;11649;48.090;9.754;2023-12-20T14:04:08;11.40;70.30
22966;DHT22;11649;48.090;9.754;2023-12-20T14:06:35;11.50;68.00
22966;DHT22;11649;48.090;9.754;2023-12-20T14:09:02;11.60;67.10
22966;DHT22;11649;48.090;9.754;2023-12-20T14:11:29;11.70;68.70
22966;DHT22;11649;48.090;9.754;2023-12-20T14:13:56;12.50;65.80
22966;DHT22;11649;48.090;9.754;2023-12-20T14:16:24;13.00;64.30
22966;DHT22;11649;48.090;9.754;2023-12-20T14:18:51;13.40;62.80
22966;DHT22;11649;48.090;9.754;2023-12-20T14:21:19;13.20;61.10
22966;DHT22;11649;48.090;9.754;2023-12-20T14:23:46;12.40;62.20
22966;DHT22;11649;48.090;9.754;2023-12-20T14:26:15;11.40;67.10
22966;DHT22;11649;48.090;9.754;2023-12-20T14:28:42;10.10;69.20
22966;DHT22;11649;48.090;9.754;2023-12-20T14:31:09;8.90;73.60
22966;DHT22;11649;48.090;9.754;2023-12-20T14:33:39;8.20;80.80
22966;DHT22;11649;48.090;9.754;2023-12-20T14:36:08;7.60;86.00
22966;DHT22;11649;48.090;9.754;2023-12-20T14:38:35;7.20;90.00
22966;DHT22;11649;48.090;9.754;2023-12-20T14:41:02;7.00;92.80
22966;DHT22;11649;48.090;9.754;2023-12-20T14:43:30;6.80;93.60
22966;DHT22;11649;48.090;9.754;2023-12-20T14:45:57;6.60;93.50
22966;DHT22;11649;48.090;9.754;2023-12-20T14:48:43;6.40;95.20
22966;DHT22;11649;48.090;9.754;2023-12-20T14:51:09;6.20;94.70
22966;DHT22;11649;48.090;9.754;2023-12-20T14:53:38;6.10;94.80
22966;DHT22;11649;48.090;9.754;2023-12-20T14:56:05;6.00;95.90
22966;DHT22;11649;48.090;9.754;2023-12-20T14:58:32;5.90;95.10
22966;DHT22;11649;48.090;9.754;2023-12-20T15:01:00;5.70;94.90
22966;DHT22;11649;48.090;9.754;2023-12-20T15:03:27;5.50;93.60
22966;DHT22;11649;48.090;9.754;2023-12-20T15:05:55;5.40;94.10
22966;DHT22;11649;48.090;9.754;2023-12-20T15:08:25;5.40;94.60
22966;DHT22;11649;48.090;9.754;2023-12-20T15:10:52;5.20;93.80
22966;DHT22;11649;48.090;9.754;2023-12-20T15:13:26;5.10;94.60
22966;DHT22;11649;48.090;9.754;2023-12-20T15:15:53;5.20;94.20
22966;DHT22;11649;48.090;9.754;2023-12-20T15:18:20;5.00;95.10
22966;DHT22;11649;48.090;9.754;2023-12-20T15:20:47;5.00;96.60
22966;DHT22;11649;48.090;9.754;2023-12-20T15:23:14;4.80;96.80
22966;DHT22;11649;48.090;9.754;2023-12-20T15:25:41;4.80;97.30
22966;DHT22;11649;48.090;9.754;2023-12-20T15:28:08;4.90;96.60
22966;DHT22;11649;48.090;9.754;2023-12-20T15:30:35;4.80;97.00
22966;DHT22;11649;48.090;9.754;2023-12-20T15:33:03;4.90;97.30
22966;DHT22;11649;48.090;9.754;2023-12-20T15:35:33;4.90;97.40
22966;DHT22;11649;48.090;9.754;2023-12-20T15:38:00;4.90;97.50
22966;DHT22;11649;48.090;9.754;2023-12-20T15:40:28;4.80;97.80
22966;DHT22;11649;48.090;9.754;2023-12-20T15:42:55;4.80;97.40
22966;DHT22;11649;48.090;9.754;2023-12-20T15:45:22;4.80;98.00
22966;DHT22;11649;48.090;9.754;2023-12-20T15:47:49;4.80;98.40
22966;DHT22;11649;48.090;9.754;2023-12-20T15:50:17;4.70;98.20
22966;DHT22;11649;48.090;9.754;2023-12-20T15:52:47;4.60;99.20
22966;DHT22;11649;48.090;9.754;2023-12-20T15:55:14;4.50;99.90
22966;DHT22;11649;48.090;9.754;2023-12-20T15:57:41;4.50;99.40
22966;DHT22;11649;48.090;9.754;2023-12-20T16:00:20;5.10;99.90